Time;durP1;ratioP1;P1;durP2;ratioP2;P2;SDS_P1;SDS_P2;PMS_P1;PMS_P2;Temp;Humidity;BMP_temperature;BMP_pressure;BME280_temperature;BME280_humidity;BME280_pressure;Samples;Min_cycle;Max_cycle;Signal;HPM_P1;HPM_P2
2022/11/22 00:00:33;;;;;;;6.18;5.15;;;4.30;92.90;;;;;;4954398;29;20288;-65
2022/11/22 00:03:02;;;;;;;7.78;5.15;;;4.30;92.90;;;;;;4953544;29;20265;-65
2022/11/22 00:05:29;;;;;;;5.70;4.63;;;4.30;93.00;;;;;;4954247;29;20715;-66
2022/11/22 00:07:57;;;;;;;6.57;5.85;;;4.40;93.10;;;;;;4954230;29;20589;-65
2022/11/22 00:10:24;;;;;;;7.20;5.35;;;4.50;93.00;;;;;;4954221;29;20222;-65
2022/11/22 00:12:52;;;;;;;7.20;4.63;;;4.60;92.90;;;;;;4953823;29;20192;-65
2022/11/22 00:15:19;;;;;;;6.45;4.75;;;4.60;92.90;;;;;;4954502;29;20528;-65
2022/11/22 00:17:47;;;;;;;10.48;5.90;;;4.70;92.70;;;;;;4953806;29;20198;-65
2022/11/22 00:20:16;;;;;;;6.03;4.32;;;4.70;92.60;;;;;;4954327;29;20232;-66
2022/11/22 00:22:44;;;;;;;6.72;4.25;;;4.80;92.70;;;;;;4953549;29;20257;-66
2022/11/22 00:25:12;;;;;;;6.50;4.78;;;4.80;92.60;;;;;;4953984;29;20237;-65
2022/11/22 00:27:40;;;;;;;9.85;6.05;;;4.90;92.70;;;;;;4954024;29;20656;-65
2022/11/22 00:30:08;;;;;;;9.20;5.57;;;4.90;92.60;;;;;;4953851;29;20201;-65
2022/11/22 00:32:36;;;;;;;8.02;5.28;;;5.00;92.40;;;;;;4953911;29;20193;-65
2022/11/22 00:35:03;;;;;;;7.50;5.68;;;5.00;92.10;;;;;;4953430;29;20198;-65
2022/11/22 00:37:33;;;;;;;7.55;5.20;;;5.00;91.90;;;;;;4953980;29;20201;-65
2022/11/22 00:40:01;;;;;;;7.63;5.63;;;5.00;92.00;;;;;;4953645;29;20218;-66
2022/11/22 00:42:28;;;;;;;8.65;5.38;;;4.90;92.10;;;;;;4953754;29;20252;-66
2022/11/22 00:44:55;;;;;;;6.30;5.35;;;5.00;92.20;;;;;;4953443;29;20244;-65
2022/11/22 00:47:22;;;;;;;6.90;4.40;;;5.00;92.20;;;;;;4953672;29;20193;-66
2022/11/22 00:49:50;;;;;;;9.98;5.18;;;5.00;92.20;;;;;;4953542;29;20532;-65
2022/11/22 00:52:18;;;;;;;6.43;4.53;;;5.00;92.10;;;;;;4953789;29;20204;-65
2022/11/22 00:54:47;;;;;;;4.93;4.30;;;5.00;91.90;;;;;;4953400;29;20193;-65
2022/11/22 00:57:14;;;;;;;5.57;4.13;;;5.00;92.30;;;;;;4953736;29;20280;-65
2022/11/22 00:59:42;;;;;;;6.68;4.13;;;5.00;92.30;;;;;;4952944;29;20597;-66
2022/11/22 01:02:09;;;;;;;6.13;4.47;;;5.00;92.40;;;;;;4953708;29;20202;-65
2022/11/22 01:04:36;;;;;;;6.60;5.15;;;5.00;92.40;;;;;;4953115;29;20233;-66
2022/11/22 01:07:04;;;;;;;5.30;4.28;;;5.00;92.60;;;;;;4953643;29;20559;-66
2022/11/22 01:09:32;;;;;;;6.43;4.45;;;5.10;92.50;;;;;;4953673;28;20194;-66
2022/11/22 01:12:00;;;;;;;6.00;4.60;;;5.10;92.50;;;;;;4957188;29;20632;-65
2022/11/22 01:14:28;;;;;;;7.25;4.80;;;5.10;92.60;;;;;;4957198;29;20229;-65
2022/11/22 01:16:55;;;;;;;6.70;4.43;;;5.10;92.20;;;;;;4957282;29;20614;-67
2022/11/22 01:19:22;;;;;;;6.80;5.82;;;5.10;92.50;;;;;;4957012;29;20201;-65
2022/11/22 01:21:50;;;;;;;6.90;6.20;;;5.10;92.60;;;;;;4957262;29;20645;-65
2022/11/22 01:24:17;;;;;;;6.65;4.95;;;5.10;92.60;;;;;;4956828;29;20190;-65
2022/11/22 01:26:44;;;;;;;5.97;4.63;;;5.10;92.50;;;;;;4957363;29;20190;-65
2022/11/22 01:29:14;;;;;;;9.32;4.82;;;5.10;92.70;;;;;;4956728;29;20657;-66
2022/11/22 01:31:41;;;;;;;6.25;4.35;;;5.10;92.70;;;;;;4957245;29;20652;-65
2022/11/22 01:34:08;;;;;;;7.32;4.63;;;5.10;92.70;;;;;;4956794;29;20245;-65
2022/11/22 01:36:36;;;;;;;6.65;4.50;;;5.10;92.70;;;;;;4957170;29;20201;-65
2022/11/22 01:39:03;;;;;;;5.80;4.43;;;5.10;92.60;;;;;;4956619;29;20222;-65
2022/11/22 01:41:31;;;;;;;5.90;5.00;;;5.10;92.70;;;;;;4957021;29;20204;-65
2022/11/22 01:43:58;;;;;;;5.93;4.15;;;5.10;92.60;;;;;;4956701;29;20561;-65
2022/11/22 01:46:34;;;;;;;8.63;5.32;;;5.10;92.60;;;;;;4956977;29;20226;-65
2022/11/22 01:49:06;;;;;;;7.97;5.72;;;5.10;92.80;;;;;;4956333;29;20221;-65
2022/11/22 01:51:38;;;;;;;6.63;4.85;;;5.10;93.10;;;;;;4957255;29;20202;-65
2022/11/22 01:54:09;;;;;;;6.45;4.70;;;5.20;93.30;;;;;;4956474;29;20284;-65
2022/11/22 01:56:39;;;;;;;5.90;4.90;;;5.20;93.20;;;;;;4956445;29;20649;-65
2022/11/22 01:59:11;;;;;;;8.10;5.55;;;5.20;93.20;;;;;;4956445;29;20197;-65
2022/11/22 02:01:40;;;;;;;5.82;4.70;;;5.20;93.20;;;;;;4956920;29;20712;-65
2022/11/22 02:04:12;;;;;;;8.35;5.03;;;5.20;93.10;;;;;;4955512;29;20225;-65
2022/11/22 02:06:46;;;;;;;8.82;5.45;;;5.30;93.00;;;;;;4936409;29;20234;-66
2022/11/22 02:09:15;;;;;;;8.75;5.20;;;5.30;93.00;;;;;;4937796;29;20653;-65
2022/11/22 02:11:48;;;;;;;6.50;3.92;;;5.30;92.70;;;;;;4955422;29;20657;-65
2022/11/22 02:14:18;;;;;;;4.45;3.75;;;5.30;92.70;;;;;;4955064;29;20194;-65
2022/11/22 02:16:48;;;;;;;4.30;3.50;;;5.20;92.80;;;;;;4955319;29;20202;-65
2022/11/22 02:19:23;;;;;;;6.25;4.03;;;5.20;92.80;;;;;;4955041;29;20193;-66
2022/11/22 02:21:58;;;;;;;5.00;3.38;;;5.10;93.10;;;;;;4954930;28;20212;-65
2022/11/22 02:24:30;;;;;;;5.45;3.90;;;5.00;93.50;;;;;;4954677;29;20189;-65
2022/11/22 02:26:59;;;;;;;5.30;3.83;;;5.00;93.60;;;;;;4955089;29;20201;-65
2022/11/22 02:29:27;;;;;;;3.83;3.10;;;5.00;93.80;;;;;;4954782;29;20200;-65
2022/11/22 02:31:54;;;;;;;4.35;3.60;;;5.00;93.70;;;;;;4954529;29;20194;-65
2022/11/22 02:34:21;;;;;;;4.22;2.90;;;5.00;93.60;;;;;;4954539;29;20198;-67
2022/11/22 02:36:51;;;;;;;6.68;4.03;;;5.00;93.60;;;;;;4954867;29;20452;-65
2022/11/22 02:39:24;;;;;;;6.32;3.72;;;4.90;93.90;;;;;;4955062;28;20355;-66
2022/11/22 02:41:51;;;;;;;5.28;3.50;;;4.90;94.10;;;;;;4954729;29;20289;-66
2022/11/22 02:44:21;;;;;;;3.70;2.70;;;5.00;94.40;;;;;;4954796;29;20641;-65
2022/11/22 02:46:50;;;;;;;4.32;3.22;;;5.00;94.60;;;;;;4954210;29;20703;-66
2022/11/22 02:49:19;;;;;;;3.67;3.03;;;5.00;94.60;;;;;;4955041;29;20277;-65
2022/11/22 02:51:47;;;;;;;4.85;3.53;;;5.10;94.80;;;;;;4954504;29;20186;-66
2022/11/22 02:54:15;;;;;;;3.42;2.45;;;5.20;94.80;;;;;;4954581;29;20204;-65
2022/11/22 02:56:43;;;;;;;3.58;2.88;;;5.20;94.80;;;;;;4954916;29;20684;-65
2022/11/22 02:59:11;;;;;;;3.80;2.70;;;5.30;94.80;;;;;;4954498;29;20190;-65
2022/11/22 03:01:40;;;;;;;5.10;3.97;;;5.40;94.80;;;;;;4954827;29;20664;-65
2022/11/22 03:04:08;;;;;;;5.37;3.57;;;5.40;94.50;;;;;;4906966;29;1400259;-66
2022/11/22 03:06:35;;;;;;;4.70;3.33;;;5.40;94.40;;;;;;4955512;29;20481;-65
2022/11/22 03:09:02;;;;;;;4.82;3.10;;;5.40;94.30;;;;;;4955166;29;20281;-65
2022/11/22 03:11:30;;;;;;;5.25;2.88;;;5.40;94.20;;;;;;4955331;29;20281;-65
2022/11/22 03:13:57;;;;;;;4.97;3.05;;;5.40;94.30;;;;;;4955219;29;20186;-65
2022/11/22 03:16:25;;;;;;;8.07;3.40;;;5.50;94.30;;;;;;4955413;29;20653;-65
2022/11/22 03:18:54;;;;;;;4.57;2.95;;;5.40;94.20;;;;;;4954900;29;20181;-65
2022/11/22 03:21:23;;;;;;;6.05;3.13;;;5.40;94.30;;;;;;4955277;29;20208;-65
2022/11/22 03:23:50;;;;;;;4.32;3.28;;;5.40;94.40;;;;;;4954878;29;20194;-65
2022/11/22 03:26:18;;;;;;;7.15;4.45;;;5.40;94.50;;;;;;4955109;29;20228;-65
2022/11/22 03:28:45;;;;;;;4.50;3.50;;;5.40;94.80;;;;;;4954776;29;20660;-66
2022/11/22 03:31:13;;;;;;;4.85;3.35;;;5.40;94.90;;;;;;4955324;29;20194;-65
2022/11/22 03:33:40;;;;;;;4.00;3.30;;;5.40;94.90;;;;;;4954369;28;20560;-69
2022/11/22 03:36:09;;;;;;;5.40;3.20;;;5.50;94.90;;;;;;4955221;29;20256;-66
2022/11/22 03:38:36;;;;;;;4.47;3.33;;;5.50;94.90;;;;;;4955183;29;20194;-65
2022/11/22 03:41:04;;;;;;;4.50;3.40;;;5.60;94.80;;;;;;4954506;29;20198;-66
2022/11/22 03:43:31;;;;;;;4.97;3.63;;;5.60;94.70;;;;;;4954838;29;20197;-66
2022/11/22 03:45:58;;;;;;;5.05;4.13;;;5.60;94.60;;;;;;4954939;29;20221;-65
2022/11/22 03:48:26;;;;;;;8.27;3.88;;;5.60;94.60;;;;;;4954529;29;20201;-65
2022/11/22 03:50:53;;;;;;;5.22;3.80;;;5.60;94.70;;;;;;4954902;29;20224;-66
2022/11/22 03:53:22;;;;;;;4.63;3.38;;;5.60;94.60;;;;;;4954605;29;20193;-66
2022/11/22 03:55:50;;;;;;;4.57;3.40;;;5.70;94.60;;;;;;4954597;29;20637;-65
2022/11/22 03:58:17;;;;;;;5.57;3.65;;;5.70;94.80;;;;;;4954357;29;20197;-66
2022/11/22 04:00:45;;;;;;;5.75;3.83;;;5.70;94.80;;;;;;4954758;29;20190;-65
2022/11/22 04:03:12;;;;;;;5.05;3.35;;;5.70;94.70;;;;;;4954280;29;20257;-66
2022/11/22 04:05:39;;;;;;;5.97;3.53;;;5.70;94.70;;;;;;4955040;29;20748;-66
2022/11/22 04:08:07;;;;;;;5.05;3.70;;;5.70;94.60;;;;;;4954451;29;20672;-65
2022/11/22 04:10:36;;;;;;;4.18;3.45;;;5.70;94.60;;;;;;4954963;29;20205;-65
2022/11/22 04:13:03;;;;;;;5.05;3.15;;;5.70;94.70;;;;;;4953770;29;20193;-66
2022/11/22 04:15:31;;;;;;;5.35;3.10;;;5.70;94.90;;;;;;4954662;29;20197;-66
2022/11/22 04:17:59;;;;;;;5.82;4.35;;;5.70;94.90;;;;;;4954211;29;20189;-65
2022/11/22 04:23:14;;;;;;;3.80;3.15;;;5.70;95.10;;;;;;4954283;29;20197;-66
2022/11/22 04:25:44;;;;;;;4.60;3.33;;;5.70;95.10;;;;;;4954472;29;20225;-65
2022/11/22 04:28:12;;;;;;;8.80;3.50;;;5.70;95.30;;;;;;4954209;29;20719;-65
2022/11/22 04:33:25;;;;;;;4.22;3.13;;;5.80;95.70;;;;;;4954145;29;20776;-65
2022/11/22 04:35:53;;;;;;;3.85;3.00;;;5.80;95.80;;;;;;4954273;29;20202;-65
2022/11/22 04:38:21;;;;;;;4.25;2.70;;;5.80;96.00;;;;;;4953762;29;20190;-66
2022/11/22 04:40:50;;;;;;;4.00;2.38;;;5.70;96.30;;;;;;4954304;29;20207;-66
2022/11/22 04:46:05;;;;;;;3.88;1.45;;;5.90;96.70;;;;;;4953578;29;20252;-66
2022/11/22 04:48:32;;;;;;;2.53;1.60;;;6.00;96.90;;;;;;4954169;29;20201;-65
2022/11/22 04:53:44;;;;;;;2.95;1.77;;;6.20;96.90;;;;;;4935262;29;20217;-65
2022/11/22 04:56:13;;;;;;;4.00;1.90;;;6.30;96.90;;;;;;4935235;29;20198;-66
2022/11/22 04:58:41;;;;;;;2.47;1.80;;;6.40;96.60;;;;;;4954550;29;20194;-65
2022/11/22 05:01:09;;;;;;;4.82;2.40;;;6.40;96.50;;;;;;4953564;29;20597;-65
2022/11/22 05:03:36;;;;;;;3.20;2.75;;;6.40;96.40;;;;;;4953833;29;20308;-65
2022/11/22 05:06:05;;;;;;;3.53;2.00;;;6.50;96.30;;;;;;4953885;29;20224;-65
2022/11/22 05:08:33;;;;;;;3.85;1.75;;;6.50;96.30;;;;;;4954072;29;20615;-65
2022/11/22 05:11:00;;;;;;;3.85;2.30;;;6.50;96.20;;;;;;4953866;29;20293;-65
2022/11/22 05:13:31;;;;;;;5.05;2.30;;;6.50;96.20;;;;;;4953252;29;20576;-66
2022/11/22 05:16:00;;;;;;;3.60;2.40;;;6.50;96.20;;;;;;4954115;29;20252;-65
2022/11/22 05:18:27;;;;;;;3.20;1.85;;;6.60;96.20;;;;;;4953758;29;20546;-66
2022/11/22 05:20:55;;;;;;;3.75;2.30;;;6.60;96.10;;;;;;4954100;29;20193;-65
2022/11/22 05:26:09;;;;;;;3.75;1.90;;;6.70;96.30;;;;;;4954184;29;20244;-66
2022/11/22 05:28:39;;;;;;;6.25;3.42;;;6.80;96.20;;;;;;4953699;29;20192;-65
2022/11/22 05:31:08;;;;;;;3.63;2.50;;;6.70;96.10;;;;;;4953837;29;20615;-66
2022/11/22 05:33:37;;;;;;;3.35;1.90;;;6.70;96.00;;;;;;4953511;29;20190;-66
2022/11/22 05:36:05;;;;;;;3.00;2.22;;;6.80;96.30;;;;;;4953933;29;20665;-65
2022/11/22 05:38:36;;;;;;;3.17;2.05;;;6.70;96.10;;;;;;4953516;29;20652;-65
2022/11/22 05:41:05;;;;;;;5.20;4.03;;;6.60;96.30;;;;;;4953896;29;20202;-65
2022/11/22 05:43:32;;;;;;;7.85;4.82;;;6.70;96.50;;;;;;4953441;29;20194;-65
2022/11/22 05:46:07;;;;;;;3.50;2.72;;;6.70;96.50;;;;;;4953709;29;20213;-66
2022/11/22 05:48:34;;;;;;;4.05;2.13;;;6.70;96.70;;;;;;4953238;29;20194;-66
2022/11/22 05:51:07;;;;;;;3.85;2.45;;;6.70;96.80;;;;;;4953618;29;20249;-65
2022/11/22 05:53:35;;;;;;;5.22;2.00;;;6.70;96.80;;;;;;4953239;29;20559;-66
2022/11/22 05:56:05;;;;;;;2.42;1.80;;;6.80;96.80;;;;;;4953952;28;20190;-65
2022/11/22 05:58:33;;;;;;;3.35;2.05;;;6.70;96.80;;;;;;4956952;29;20614;-65
2022/11/22 06:01:07;;;;;;;2.40;1.60;;;6.70;97.00;;;;;;4957117;29;20198;-65
2022/11/22 06:03:35;;;;;;;3.70;1.60;;;6.70;97.30;;;;;;4953501;28;20267;-65
2022/11/22 06:06:03;;;;;;;4.22;2.90;;;6.80;97.40;;;;;;4956908;29;20225;-65
2022/11/22 06:08:32;;;;;;;5.22;2.72;;;6.80;97.50;;;;;;4956903;29;20313;-65
2022/11/22 06:11:05;;;;;;;4.10;2.80;;;6.80;97.40;;;;;;4957324;29;20284;-65
2022/11/22 06:13:35;;;;;;;4.97;3.40;;;6.80;97.40;;;;;;4956520;29;20560;-65
2022/11/22 06:16:08;;;;;;;6.70;3.33;;;6.80;97.40;;;;;;4957071;29;20194;-66
2022/11/22 06:18:36;;;;;;;3.25;1.40;;;6.90;97.50;;;;;;4956659;29;20197;-66
2022/11/22 06:21:04;;;;;;;2.63;1.58;;;6.90;97.40;;;;;;4957010;29;20557;-65
2022/11/22 06:23:32;;;;;;;4.68;2.85;;;6.90;97.30;;;;;;4956247;29;20190;-67
2022/11/22 06:26:00;;;;;;;8.70;2.53;;;6.80;97.30;;;;;;4956346;29;20302;-66
2022/11/22 06:28:29;;;;;;;4.95;2.85;;;6.90;97.30;;;;;;4956126;29;20192;-67
2022/11/22 06:31:01;;;;;;;4.70;2.28;;;6.90;97.30;;;;;;4956577;29;20194;-69
2022/11/22 06:33:30;;;;;;;2.05;1.13;;;6.90;97.30;;;;;;4956650;29;20279;-67
2022/11/22 06:36:02;;;;;;;3.30;1.15;;;6.90;97.20;;;;;;4956571;29;20208;-67
2022/11/22 06:38:30;;;;;;;3.35;1.25;;;7.00;97.10;;;;;;4956572;29;20208;-67
2022/11/22 06:41:00;;;;;;;2.28;1.20;;;7.00;97.20;;;;;;4955535;29;20197;-67
2022/11/22 06:43:29;;;;;;;2.55;1.15;;;7.00;97.10;;;;;;4956066;29;20190;-64
2022/11/22 06:45:56;;;;;;;3.53;1.35;;;7.00;96.90;;;;;;4954472;29;20297;-66
2022/11/22 06:48:23;;;;;;;3.67;1.55;;;7.00;96.80;;;;;;4949627;29;20220;-66
2022/11/22 06:50:52;;;;;;;2.95;1.30;;;7.10;96.90;;;;;;4955083;29;20285;-66
2022/11/22 06:53:19;;;;;;;5.00;2.55;;;7.10;96.70;;;;;;4956295;29;20198;-66
2022/11/22 06:55:46;;;;;;;2.15;1.23;;;7.10;96.60;;;;;;4954720;29;20257;-65
2022/11/22 06:58:14;;;;;;;2.05;0.95;;;7.10;96.60;;;;;;4955156;29;20225;-66
2022/11/22 07:00:41;;;;;;;4.72;1.75;;;7.10;96.50;;;;;;4956019;29;20253;-66
2022/11/22 07:03:30;;;;;;;2.83;1.67;;;7.20;96.50;;;;;;4954011;29;20273;-66
2022/11/22 07:05:58;;;;;;;3.67;1.42;;;7.20;96.30;;;;;;4954493;29;20248;-66
2022/11/22 07:08:26;;;;;;;2.10;1.20;;;7.20;96.20;;;;;;4954130;28;20264;-66
2022/11/22 07:10:53;;;;;;;3.83;1.13;;;7.20;96.20;;;;;;4954446;29;20195;-67
2022/11/22 07:13:20;;;;;;;4.50;1.70;;;7.30;96.10;;;;;;4955440;29;20214;-67
2022/11/22 07:16:03;;;;;;;2.88;1.27;;;7.30;96.20;;;;;;4955084;29;20332;-66
2022/11/22 07:18:30;;;;;;;4.22;1.40;;;7.30;96.20;;;;;;4955706;29;20197;-66
2022/11/22 07:21:05;;;;;;;13.95;5.90;;;7.30;96.10;;;;;;4954552;29;20257;-66
2022/11/22 07:23:32;;;;;;;6.80;2.28;;;7.30;96.00;;;;;;4954304;29;20197;-66
2022/11/22 07:26:00;;;;;;;3.50;3.20;;;7.30;96.00;;;;;;4955174;29;20601;-66
2022/11/22 07:28:28;;;;;;;3.55;2.28;;;7.30;96.00;;;;;;4954551;29;20190;-68
2022/11/22 07:31:00;;;;;;;3.55;1.95;;;7.30;96.00;;;;;;4954936;29;20205;-66
2022/11/22 07:33:27;;;;;;;5.47;2.67;;;7.30;95.80;;;;;;4955135;29;20194;-66
2022/11/22 07:35:54;;;;;;;3.78;2.67;;;7.30;95.80;;;;;;4954360;29;20222;-66
2022/11/22 07:38:22;;;;;;;6.10;3.00;;;7.30;96.00;;;;;;4955678;29;20189;-66
2022/11/22 07:40:50;;;;;;;3.47;2.20;;;7.30;96.00;;;;;;4954389;29;20214;-66
2022/11/22 07:43:16;;;;;;;3.63;1.80;;;7.20;96.00;;;;;;4955937;29;20229;-66
2022/11/22 07:45:43;;;;;;;3.88;1.42;;;7.20;96.20;;;;;;4955727;29;20252;-66
2022/11/22 07:48:13;;;;;;;4.45;1.60;;;7.20;96.30;;;;;;4955264;29;20221;-66
2022/11/22 07:50:40;;;;;;;3.85;1.70;;;7.20;96.20;;;;;;4955732;29;20198;-66
2022/11/22 07:53:08;;;;;;;7.47;1.80;;;7.20;96.10;;;;;;4955336;29;20284;-66
2022/11/22 07:55:36;;;;;;;2.97;1.65;;;7.20;96.20;;;;;;4955702;29;20245;-67
2022/11/22 07:58:03;;;;;;;4.72;1.52;;;7.20;96.10;;;;;;4954975;29;20198;-66
2022/11/22 08:00:30;;;;;;;3.15;1.10;;;7.30;95.80;;;;;;4955054;29;20236;-66
2022/11/22 08:02:58;;;;;;;38.35;15.68;;;7.30;95.90;;;;;;4955353;29;20201;-66
2022/11/22 08:05:26;;;;;;;9.73;5.43;;;7.30;95.70;;;;;;4954352;29;20241;-66
2022/11/22 08:07:54;;;;;;;5.88;2.28;;;7.30;95.80;;;;;;4954919;29;20226;-68
2022/11/22 08:10:22;;;;;;;3.85;2.20;;;7.20;95.60;;;;;;4955313;29;20241;-66
2022/11/22 08:12:50;;;;;;;4.15;2.08;;;7.30;95.80;;;;;;4955257;29;20304;-66
2022/11/22 08:15:17;;;;;;;7.40;3.45;;;7.30;95.80;;;;;;4951499;28;20201;-67
2022/11/22 08:17:44;;;;;;;3.42;2.50;;;7.20;95.90;;;;;;4952668;28;20244;-67
2022/11/22 08:20:12;;;;;;;4.35;2.15;;;7.20;96.30;;;;;;4952908;28;20276;-67
2022/11/22 08:22:39;;;;;;;6.28;2.10;;;7.20;96.40;;;;;;4954080;29;20551;-67
2022/11/22 08:25:11;;;;;;;9.55;2.50;;;7.10;96.30;;;;;;4954096;29;20198;-67
2022/11/22 08:27:39;;;;;;;6.15;2.92;;;7.10;96.40;;;;;;4953615;29;20292;-67
2022/11/22 08:30:08;;;;;;;4.75;2.10;;;7.10;96.50;;;;;;4952896;29;20752;-67
2022/11/22 08:32:35;;;;;;;7.10;2.67;;;7.10;96.40;;;;;;4953675;29;20240;-67
2022/11/22 08:35:02;;;;;;;4.55;1.65;;;7.10;96.40;;;;;;4953910;29;20228;-67
2022/11/22 08:37:29;;;;;;;3.72;1.10;;;7.10;96.40;;;;;;4953699;28;20253;-67
2022/11/22 08:39:56;;;;;;;3.67;1.15;;;7.10;96.40;;;;;;4953726;28;20193;-67
2022/11/22 08:42:23;;;;;;;10.10;5.18;;;7.00;96.10;;;;;;4953395;28;20608;-67
2022/11/22 08:44:50;;;;;;;6.88;3.65;;;6.90;95.90;;;;;;4953218;28;20283;-67
2022/11/22 08:47:19;;;;;;;5.43;4.43;;;6.80;95.90;;;;;;4953292;28;20222;-67
2022/11/22 08:49:46;;;;;;;2.90;1.30;;;6.60;96.30;;;;;;4953453;28;20232;-66
2022/11/22 08:52:13;;;;;;;3.65;1.60;;;6.50;96.30;;;;;;4953518;28;20641;-67
2022/11/22 08:54:40;;;;;;;2.78;1.25;;;6.50;96.90;;;;;;4953741;28;20613;-67
2022/11/22 08:57:07;;;;;;;4.03;1.40;;;6.50;96.80;;;;;;4953311;29;20197;-67
2022/11/22 08:59:34;;;;;;;3.45;1.50;;;6.50;96.70;;;;;;4953547;29;20249;-67
2022/11/22 09:02:01;;;;;;;2.85;1.70;;;6.50;96.30;;;;;;4953217;28;20206;-67
2022/11/22 09:04:30;;;;;;;9.68;1.85;;;6.50;96.30;;;;;;4964655;28;20328;-67
2022/11/22 09:06:59;;;;;;;4.00;1.60;;;6.40;96.50;;;;;;4966971;28;20224;-67
2022/11/22 09:09:26;;;;;;;8.93;5.20;;;6.30;96.80;;;;;;4966218;28;20201;-67
2022/11/22 09:11:53;;;;;;;6.18;2.83;;;6.30;96.70;;;;;;4969962;28;20232;-67
2022/11/22 09:14:20;;;;;;;2.65;1.70;;;6.40;96.90;;;;;;4966476;28;20657;-68
2022/11/22 09:16:47;;;;;;;3.17;1.98;;;6.30;96.70;;;;;;4967608;28;20584;-67
2022/11/22 09:19:14;;;;;;;7.70;1.75;;;6.30;96.80;;;;;;4970273;28;20252;-67
2022/11/22 09:21:43;;;;;;;4.35;1.60;;;6.30;96.80;;;;;;4971081;28;20332;-67
2022/11/22 09:24:10;;;;;;;2.50;1.88;;;6.20;96.90;;;;;;4968126;28;20201;-67
2022/11/22 09:26:37;;;;;;;2.45;1.20;;;6.20;97.30;;;;;;4968677;28;20244;-67
2022/11/22 09:29:04;;;;;;;5.00;2.60;;;6.20;97.70;;;;;;4971260;28;20201;-67
2022/11/22 09:31:31;;;;;;;2.25;1.10;;;6.20;97.60;;;;;;4972981;28;20283;-67
2022/11/22 09:33:58;;;;;;;3.08;1.80;;;6.30;97.50;;;;;;4971485;28;20205;-67
2022/11/22 09:36:26;;;;;;;2.83;1.13;;;6.20;97.60;;;;;;4962489;28;20264;-67
2022/11/22 09:38:55;;;;;;;2.15;1.17;;;6.20;97.90;;;;;;4957417;28;20225;-68
2022/11/22 09:41:42;;;;;;;8.82;3.05;;;6.30;97.90;;;;;;4957233;28;20249;-67
2022/11/22 09:44:17;;;;;;;2.17;1.05;;;6.40;97.90;;;;;;4961344;28;20203;-67
2022/11/22 09:46:53;;;;;;;4.78;1.50;;;6.40;97.90;;;;;;4953804;28;20201;-67
2022/11/22 09:49:28;;;;;;;1.90;1.30;;;6.40;97.60;;;;;;4957226;28;20231;-68
2022/11/22 09:52:03;;;;;;;2.70;2.28;;;6.40;97.70;;;;;;4958224;28;20197;-67
2022/11/22 09:54:41;;;;;;;3.85;1.90;;;6.50;98.00;;;;;;4959619;28;20197;-67
2022/11/22 09:57:15;;;;;;;4.13;1.98;;;6.50;97.50;;;;;;4958565;28;20205;-68
2022/11/22 09:59:46;;;;;;;4.15;1.45;;;6.60;97.50;;;;;;4958906;28;20229;-67
2022/11/22 10:02:18;;;;;;;3.92;1.40;;;6.60;97.20;;;;;;4959599;28;20224;-67
2022/11/22 10:04:51;;;;;;;3.28;1.33;;;6.60;97.50;;;;;;4956657;28;20229;-67
2022/11/22 10:07:23;;;;;;;2.83;1.02;;;6.60;97.40;;;;;;4957322;28;20284;-68
2022/11/22 10:09:58;;;;;;;4.35;1.70;;;6.70;97.70;;;;;;4957443;28;20225;-67
2022/11/22 10:12:32;;;;;;;6.10;1.42;;;6.80;97.80;;;;;;4958997;28;20202;-67
2022/11/22 10:15:03;;;;;;;3.63;1.50;;;6.90;97.90;;;;;;4961068;28;20201;-66
2022/11/22 10:17:51;;;;;;;4.13;1.33;;;6.90;97.10;;;;;;4961018;28;20224;-66
2022/11/22 10:20:20;;;;;;;5.05;1.65;;;7.00;96.80;;;;;;4960946;28;20260;-66
2022/11/22 10:22:48;;;;;;;3.40;1.50;;;7.00;96.60;;;;;;4957190;28;20253;-66
2022/11/22 10:25:19;;;;;;;3.97;1.52;;;7.00;96.10;;;;;;4959350;28;20234;-66
2022/11/22 10:28:00;;;;;;;2.97;1.13;;;7.10;95.90;;;;;;4960849;28;20229;-66
2022/11/22 10:30:32;;;;;;;2.63;1.33;;;7.10;95.40;;;;;;4960117;28;20205;-66
2022/11/22 10:33:10;;;;;;;2.47;1.17;;;7.20;95.50;;;;;;4960848;28;20209;-66
2022/11/22 10:35:56;;;;;;;2.17;1.10;;;7.20;95.00;;;;;;4962460;28;20633;-66
2022/11/22 10:38:56;;;;;;;3.60;1.30;;;7.30;95.10;;;;;;4959084;28;20214;-66
2022/11/22 10:41:37;;;;;;;2.97;1.33;;;7.30;94.20;;;;;;4958674;28;20240;-66
2022/11/22 10:44:17;;;;;;;6.55;2.00;;;7.30;94.30;;;;;;4962451;28;20284;-66
2022/11/22 10:46:52;;;;;;;4.82;2.40;;;7.30;94.80;;;;;;4961074;28;20209;-66
2022/11/22 10:49:26;;;;;;;5.82;3.28;;;7.30;94.50;;;;;;4962527;28;20249;-66
2022/11/22 10:51:59;;;;;;;9.00;2.85;;;7.30;94.60;;;;;;4960920;28;20248;-66
2022/11/22 10:54:34;;;;;;;8.65;4.18;;;7.40;94.40;;;;;;4960513;28;20233;-66
2022/11/22 10:57:14;;;;;;;6.22;3.10;;;7.50;94.60;;;;;;4960909;28;20201;-67
2022/11/22 10:59:52;;;;;;;3.75;2.75;;;7.50;94.50;;;;;;4962982;28;20200;-66
2022/11/22 11:02:45;;;;;;;3.35;2.00;;;7.50;94.40;;;;;;4962414;28;20545;-66
2022/11/22 11:05:18;;;;;;;4.80;1.65;;;7.50;94.50;;;;;;4934734;29;20206;-66
2022/11/22 11:07:49;;;;;;;3.95;1.60;;;7.50;94.60;;;;;;4935329;29;20233;-67
2022/11/22 11:10:19;;;;;;;2.97;1.65;;;7.60;94.70;;;;;;4935844;29;20234;-67
2022/11/22 11:12:52;;;;;;;2.92;1.90;;;7.60;94.60;;;;;;4936039;29;20249;-66
2022/11/22 11:15:22;;;;;;;9.65;6.15;;;7.60;94.00;;;;;;4937103;29;20258;-66
2022/11/22 11:17:54;;;;;;;7.13;3.67;;;7.60;93.60;;;;;;4937267;29;20234;-66
2022/11/22 11:20:25;;;;;;;5.28;3.05;;;7.60;93.90;;;;;;4937206;29;20209;-66
2022/11/22 11:22:52;;;;;;;5.15;2.85;;;7.50;93.20;;;;;;4936773;29;20649;-67
2022/11/22 11:25:33;;;;;;;3.03;1.60;;;7.50;93.40;;;;;;4936881;29;20234;-66
2022/11/22 11:28:05;;;;;;;4.15;2.00;;;7.50;93.50;;;;;;4936521;29;20277;-66
2022/11/22 11:30:42;;;;;;;2.83;1.50;;;7.60;93.60;;;;;;4936714;29;20194;-66
2022/11/22 11:33:24;;;;;;;6.03;2.47;;;7.60;93.60;;;;;;4937064;29;20266;-66
2022/11/22 11:35:55;;;;;;;7.32;4.07;;;7.60;93.30;;;;;;4936540;29;20668;-66
2022/11/22 11:38:34;;;;;;;8.32;4.80;;;7.60;93.00;;;;;;4936503;29;20186;-66
2022/11/22 11:41:22;;;;;;;10.27;5.85;;;7.50;92.70;;;;;;4936935;29;20214;-66
2022/11/22 11:43:53;;;;;;;23.33;15.23;;;7.50;93.20;;;;;;4936277;29;20704;-67
2022/11/22 11:46:21;;;;;;;7.70;3.85;;;7.50;93.10;;;;;;4936644;29;20199;-66
2022/11/22 11:48:49;;;;;;;7.10;2.33;;;7.60;93.40;;;;;;4936490;29;20221;-66
2022/11/22 11:51:24;;;;;;;7.00;2.05;;;7.60;93.50;;;;;;4936641;29;20205;-66
2022/11/22 11:53:58;;;;;;;12.23;7.03;;;7.70;93.20;;;;;;4936155;29;20209;-66
2022/11/22 11:56:40;;;;;;;15.07;8.32;;;7.70;93.30;;;;;;4936480;29;20601;-67
2022/11/22 11:59:13;;;;;;;10.95;5.60;;;7.70;92.70;;;;;;4936516;29;20205;-66
2022/11/22 12:01:48;;;;;;;7.05;4.65;;;7.60;92.50;;;;;;4936564;29;20253;-66
2022/11/22 12:04:21;;;;;;;4.40;2.00;;;7.60;92.80;;;;;;4959300;28;20757;-67
2022/11/22 12:06:55;;;;;;;3.95;2.00;;;7.70;92.50;;;;;;4974485;28;20216;-66
2022/11/22 12:09:36;;;;;;;5.22;2.10;;;7.70;92.40;;;;;;4974726;28;20225;-66
2022/11/22 12:12:11;;;;;;;75.05;37.90;;;7.80;92.80;;;;;;4974758;28;20197;-66
2022/11/22 12:14:43;;;;;;;35.80;17.83;;;7.80;92.80;;;;;;4958630;28;20267;-66
2022/11/22 12:17:18;;;;;;;243.98;117.45;;;7.80;92.50;;;;;;4954521;29;20193;-66
2022/11/22 12:19:54;;;;;;;227.57;127.63;;;7.80;92.30;;;;;;4954803;29;20285;-67
2022/11/22 12:22:27;;;;;;;65.88;37.60;;;7.80;92.20;;;;;;4954877;29;20197;-66
2022/11/22 12:24:59;;;;;;;15.77;12.95;;;7.70;92.00;;;;;;4954479;29;20269;-66
2022/11/22 12:27:26;;;;;;;5.93;4.15;;;7.70;92.30;;;;;;4953845;29;20190;-66
2022/11/22 12:29:54;;;;;;;7.97;4.65;;;7.70;92.10;;;;;;4955255;28;20268;-66
2022/11/22 12:32:27;;;;;;;6.05;5.10;;;7.70;92.20;;;;;;4963562;28;20193;-66
2022/11/22 12:34:58;;;;;;;4.97;4.50;;;7.80;92.00;;;;;;4964076;28;20202;-66
2022/11/22 12:37:30;;;;;;;5.22;2.85;;;7.70;91.80;;;;;;4955014;29;20587;-66
2022/11/22 12:40:05;;;;;;;5.93;3.03;;;7.70;92.30;;;;;;4954938;29;20236;-66
2022/11/22 12:42:37;;;;;;;6.35;3.75;;;7.70;92.10;;;;;;4954202;29;20272;-67
2022/11/22 12:45:10;;;;;;;6.50;2.58;;;7.70;92.20;;;;;;4954799;29;20272;-66
2022/11/22 12:47:41;;;;;;;4.90;2.00;;;7.70;92.10;;;;;;4954732;29;20217;-66
2022/11/22 12:50:15;;;;;;;3.20;1.83;;;7.80;92.50;;;;;;4958428;28;20197;-66
2022/11/22 12:52:46;;;;;;;7.97;2.85;;;7.80;92.60;;;;;;4965420;28;20193;-67
2022/11/22 12:55:20;;;;;;;10.07;2.13;;;7.90;92.60;;;;;;4972859;28;20193;-67
2022/11/22 12:57:53;;;;;;;3.60;2.40;;;7.90;92.10;;;;;;4973501;28;20196;-66
2022/11/22 13:00:24;;;;;;;12.55;6.93;;;7.90;92.10;;;;;;4973754;28;20189;-67
2022/11/22 13:03:01;;;;;;;9.35;3.40;;;7.90;91.90;;;;;;4973785;28;20192;-66
2022/11/22 13:05:30;;;;;;;7.65;2.63;;;8.00;92.20;;;;;;4975393;28;20192;-66
2022/11/22 13:08:03;;;;;;;5.63;2.08;;;8.00;92.00;;;;;;4977838;28;20248;-66
2022/11/22 13:10:36;;;;;;;5.13;1.60;;;8.10;91.80;;;;;;4977827;28;20220;-66
2022/11/22 13:13:05;;;;;;;12.48;6.63;;;8.10;91.90;;;;;;4977682;28;20197;-66
2022/11/22 13:15:39;;;;;;;10.65;4.95;;;8.10;91.70;;;;;;4977491;28;20243;-66
2022/11/22 13:18:09;;;;;;;5.85;3.08;;;8.10;91.90;;;;;;4977833;28;20243;-66
2022/11/22 13:20:40;;;;;;;6.32;2.20;;;8.20;92.30;;;;;;4977924;28;20229;-66
2022/11/22 13:23:22;;;;;;;7.32;2.05;;;8.30;92.10;;;;;;4977959;28;20520;-66